sensor_id;sensor_type;location;lat;lon;timestamp;P1;durP1;ratioP1;P2;durP2;ratioP2
77888;SDS011;67082;41.704;44.768;2023-12-20T00:01:45;9.45;;;4.10;;
77888;SDS011;67082;41.704;44.768;2023-12-20T00:04:13;10.70;;;4.30;;
77888;SDS011;67082;41.704;44.768;2023-12-20T00:06:42;7.70;;;3.90;;
77888;SDS011;67082;41.704;44.768;2023-12-20T00:09:10;7.63;;;4.22;;
77888;SDS011;67082;41.704;44.768;2023-12-20T00:11:38;7.97;;;4.00;;
77888;SDS011;67082;41.704;44.768;2023-12-20T00:14:06;12.15;;;4.30;;
77888;SDS011;67082;41.704;44.768;2023-12-20T00:16:35;9.63;;;4.38;;
77888;SDS011;67082;41.704;44.768;2023-12-20T00:19:03;9.75;;;4.22;;
77888;SDS011;67082;41.704;44.768;2023-12-20T00:21:32;9.90;;;4.55;;
77888;SDS011;67082;41.704;44.768;2023-12-20T00:24:00;11.10;;;4.90;;
77888;SDS011;67082;41.704;44.768;2023-12-20T00:26:28;8.95;;;4.55;;
77888;SDS011;67082;41.704;44.768;2023-12-20T00:28:57;11.77;;;4.53;;
77888;SDS011;67082;41.704;44.768;2023-12-20T00:31:26;10.00;;;4.28;;
77888;SDS011;67082;41.704;44.768;2023-12-20T00:33:54;10.32;;;5.10;;
77888;SDS011;67082;41.704;44.768;2023-12-20T00:36:23;8.32;;;4.10;;
77888;SDS011;67082;41.704;44.768;2023-12-20T00:38:51;10.82;;;5.13;;
77888;SDS011;67082;41.704;44.768;2023-12-20T00:41:20;7.57;;;4.50;;
77888;SDS011;67082;41.704;44.768;2023-12-20T00:43:48;11.00;;;4.57;;
77888;SDS011;67082;41.704;44.768;2023-12-20T00:46:16;9.43;;;4.65;;
77888;SDS011;67082;41.704;44.768;2023-12-20T00:48:46;9.25;;;4.68;;
77888;SDS011;67082;41.704;44.768;2023-12-20T00:51:14;16.92;;;3.85;;
77888;SDS011;67082;41.704;44.768;2023-12-20T00:53:42;9.40;;;3.85;;
77888;SDS011;67082;41.704;44.768;2023-12-20T00:56:11;11.43;;;5.28;;
77888;SDS011;67082;41.704;44.768;2023-12-20T00:58:39;8.65;;;3.83;;
77888;SDS011;67082;41.704;44.768;2023-12-20T01:01:08;7.18;;;3.95;;
77888;SDS011;67082;41.704;44.768;2023-12-20T01:03:36;8.70;;;4.13;;
77888;SDS011;67082;41.704;44.768;2023-12-20T01:06:04;7.13;;;3.92;;
77888;SDS011;67082;41.704;44.768;2023-12-20T01:08:33;6.72;;;3.63;;
77888;SDS011;67082;41.704;44.768;2023-12-20T01:11:06;8.30;;;3.85;;
77888;SDS011;67082;41.704;44.768;2023-12-20T01:13:36;8.90;;;4.20;;
77888;SDS011;67082;41.704;44.768;2023-12-20T01:16:05;11.27;;;4.30;;
77888;SDS011;67082;41.704;44.768;2023-12-20T01:18:33;8.73;;;4.65;;
77888;SDS011;67082;41.704;44.768;2023-12-20T01:21:04;8.40;;;4.30;;
77888;SDS011;67082;41.704;44.768;2023-12-20T01:23:33;7.05;;;3.90;;
77888;SDS011;67082;41.704;44.768;2023-12-20T01:26:01;9.55;;;4.00;;
77888;SDS011;67082;41.704;44.768;2023-12-20T01:28:30;11.77;;;4.40;;
77888;SDS011;67082;41.704;44.768;2023-12-20T01:30:58;9.05;;;4.47;;
77888;SDS011;67082;41.704;44.768;2023-12-20T01:33:27;9.27;;;4.00;;
77888;SDS011;67082;41.704;44.768;2023-12-20T01:35:56;8.10;;;3.85;;
77888;SDS011;67082;41.704;44.768;2023-12-20T01:38:24;6.63;;;3.75;;
77888;SDS011;67082;41.704;44.768;2023-12-20T01:40:52;8.07;;;3.83;;
77888;SDS011;67082;41.704;44.768;2023-12-20T01:43:20;8.80;;;3.67;;
77888;SDS011;67082;41.704;44.768;2023-12-20T01:45:50;6.88;;;3.70;;
77888;SDS011;67082;41.704;44.768;2023-12-20T01:48:21;8.43;;;3.58;;
77888;SDS011;67082;41.704;44.768;2023-12-20T01:50:50;7.80;;;3.83;;
77888;SDS011;67082;41.704;44.768;2023-12-20T01:53:19;8.63;;;3.67;;
77888;SDS011;67082;41.704;44.768;2023-12-20T01:55:52;10.70;;;3.70;;
77888;SDS011;67082;41.704;44.768;2023-12-20T01:58:22;6.57;;;3.10;;
77888;SDS011;67082;41.704;44.768;2023-12-20T02:00:51;10.63;;;3.70;;
77888;SDS011;67082;41.704;44.768;2023-12-20T02:03:19;7.22;;;3.38;;
77888;SDS011;67082;41.704;44.768;2023-12-20T02:05:48;7.72;;;3.47;;
77888;SDS011;67082;41.704;44.768;2023-12-20T02:08:18;7.20;;;3.60;;
77888;SDS011;67082;41.704;44.768;2023-12-20T02:10:48;7.40;;;3.40;;
77888;SDS011;67082;41.704;44.768;2023-12-20T02:13:16;9.13;;;4.10;;
77888;SDS011;67082;41.704;44.768;2023-12-20T02:15:45;8.63;;;4.40;;
77888;SDS011;67082;41.704;44.768;2023-12-20T02:18:13;9.45;;;4.10;;
77888;SDS011;67082;41.704;44.768;2023-12-20T02:20:45;9.40;;;4.50;;
77888;SDS011;67082;41.704;44.768;2023-12-20T02:23:13;9.43;;;3.95;;
77888;SDS011;67082;41.704;44.768;2023-12-20T02:25:42;7.97;;;3.72;;
77888;SDS011;67082;41.704;44.768;2023-12-20T02:28:10;9.45;;;4.13;;
77888;SDS011;67082;41.704;44.768;2023-12-20T02:30:38;6.60;;;3.40;;
77888;SDS011;67082;41.704;44.768;2023-12-20T02:33:10;7.65;;;3.35;;
77888;SDS011;67082;41.704;44.768;2023-12-20T02:35:43;8.32;;;3.30;;
77888;SDS011;67082;41.704;44.768;2023-12-20T02:38:11;5.93;;;3.05;;
77888;SDS011;67082;41.704;44.768;2023-12-20T02:40:40;9.68;;;3.45;;
77888;SDS011;67082;41.704;44.768;2023-12-20T02:43:15;6.55;;;3.33;;
77888;SDS011;67082;41.704;44.768;2023-12-20T02:45:44;7.22;;;3.30;;
77888;SDS011;67082;41.704;44.768;2023-12-20T02:48:12;6.70;;;3.17;;
77888;SDS011;67082;41.704;44.768;2023-12-20T02:50:41;6.50;;;3.03;;
77888;SDS011;67082;41.704;44.768;2023-12-20T02:53:09;5.72;;;3.03;;
77888;SDS011;67082;41.704;44.768;2023-12-20T02:55:39;7.88;;;3.17;;
77888;SDS011;67082;41.704;44.768;2023-12-20T02:58:10;7.13;;;3.00;;
77888;SDS011;67082;41.704;44.768;2023-12-20T03:00:38;5.20;;;2.65;;
77888;SDS011;67082;41.704;44.768;2023-12-20T03:03:06;6.63;;;3.05;;
77888;SDS011;67082;41.704;44.768;2023-12-20T03:05:34;6.78;;;2.72;;
77888;SDS011;67082;41.704;44.768;2023-12-20T03:08:03;6.68;;;3.28;;
77888;SDS011;67082;41.704;44.768;2023-12-20T03:10:31;6.93;;;3.70;;
77888;SDS011;67082;41.704;44.768;2023-12-20T03:12:59;5.47;;;3.00;;
77888;SDS011;67082;41.704;44.768;2023-12-20T03:15:28;8.13;;;3.30;;
77888;SDS011;67082;41.704;44.768;2023-12-20T03:17:56;8.43;;;3.33;;
77888;SDS011;67082;41.704;44.768;2023-12-20T03:20:27;7.95;;;3.30;;
77888;SDS011;67082;41.704;44.768;2023-12-20T03:22:55;9.98;;;3.70;;
77888;SDS011;67082;41.704;44.768;2023-12-20T03:25:23;6.43;;;3.78;;
77888;SDS011;67082;41.704;44.768;2023-12-20T03:27:52;8.23;;;3.70;;
77888;SDS011;67082;41.704;44.768;2023-12-20T03:30:20;7.22;;;3.42;;
77888;SDS011;67082;41.704;44.768;2023-12-20T03:32:48;6.90;;;3.20;;
77888;SDS011;67082;41.704;44.768;2023-12-20T03:35:17;9.45;;;3.50;;
77888;SDS011;67082;41.704;44.768;2023-12-20T03:37:45;7.97;;;3.78;;
77888;SDS011;67082;41.704;44.768;2023-12-20T03:40:14;7.35;;;3.42;;
77888;SDS011;67082;41.704;44.768;2023-12-20T03:42:42;5.78;;;3.25;;
77888;SDS011;67082;41.704;44.768;2023-12-20T03:45:11;8.48;;;4.10;;
77888;SDS011;67082;41.704;44.768;2023-12-20T03:47:39;11.98;;;3.70;;
77888;SDS011;67082;41.704;44.768;2023-12-20T03:50:07;8.82;;;3.53;;
77888;SDS011;67082;41.704;44.768;2023-12-20T03:52:35;10.13;;;4.30;;
77888;SDS011;67082;41.704;44.768;2023-12-20T03:55:04;10.52;;;3.63;;
77888;SDS011;67082;41.704;44.768;2023-12-20T03:57:32;8.38;;;3.50;;
77888;SDS011;67082;41.704;44.768;2023-12-20T04:00:01;9.35;;;3.80;;
77888;SDS011;67082;41.704;44.768;2023-12-20T04:02:38;6.13;;;3.08;;
77888;SDS011;67082;41.704;44.768;2023-12-20T04:05:08;6.45;;;2.95;;
77888;SDS011;67082;41.704;44.768;2023-12-20T04:07:37;6.15;;;2.80;;
77888;SDS011;67082;41.704;44.768;2023-12-20T04:10:06;9.00;;;2.60;;
77888;SDS011;67082;41.704;44.768;2023-12-20T04:12:35;5.82;;;2.55;;
77888;SDS011;67082;41.704;44.768;2023-12-20T04:15:04;6.38;;;2.60;;
77888;SDS011;67082;41.704;44.768;2023-12-20T04:17:38;6.93;;;2.75;;
77888;SDS011;67082;41.704;44.768;2023-12-20T04:20:06;6.60;;;2.60;;
77888;SDS011;67082;41.704;44.768;2023-12-20T04:22:35;5.45;;;2.63;;
77888;SDS011;67082;41.704;44.768;2023-12-20T04:25:07;8.75;;;3.15;;
77888;SDS011;67082;41.704;44.768;2023-12-20T04:27:35;8.63;;;2.80;;
77888;SDS011;67082;41.704;44.768;2023-12-20T04:30:04;10.90;;;3.92;;
77888;SDS011;67082;41.704;44.768;2023-12-20T04:32:33;11.07;;;4.60;;
77888;SDS011;67082;41.704;44.768;2023-12-20T04:35:01;9.93;;;4.13;;
77888;SDS011;67082;41.704;44.768;2023-12-20T04:37:30;8.32;;;3.92;;
77888;SDS011;67082;41.704;44.768;2023-12-20T04:39:58;8.35;;;3.53;;
77888;SDS011;67082;41.704;44.768;2023-12-20T04:42:26;7.40;;;3.38;;
77888;SDS011;67082;41.704;44.768;2023-12-20T04:44:55;14.18;;;3.45;;
77888;SDS011;67082;41.704;44.768;2023-12-20T04:47:23;6.93;;;3.22;;
77888;SDS011;67082;41.704;44.768;2023-12-20T04:49:51;11.02;;;3.22;;
77888;SDS011;67082;41.704;44.768;2023-12-20T04:52:20;8.93;;;3.67;;
77888;SDS011;67082;41.704;44.768;2023-12-20T04:54:48;7.70;;;3.92;;
77888;SDS011;67082;41.704;44.768;2023-12-20T04:57:16;8.25;;;4.50;;
77888;SDS011;67082;41.704;44.768;2023-12-20T04:59:45;10.82;;;4.13;;
77888;SDS011;67082;41.704;44.768;2023-12-20T05:02:13;11.80;;;3.97;;
77888;SDS011;67082;41.704;44.768;2023-12-20T05:04:41;9.73;;;3.40;;
77888;SDS011;67082;41.704;44.768;2023-12-20T05:07:10;8.35;;;3.47;;
77888;SDS011;67082;41.704;44.768;2023-12-20T05:09:38;10.50;;;4.07;;
77888;SDS011;67082;41.704;44.768;2023-12-20T05:12:07;9.75;;;3.90;;
77888;SDS011;67082;41.704;44.768;2023-12-20T05:14:35;12.93;;;4.15;;
77888;SDS011;67082;41.704;44.768;2023-12-20T05:17:04;7.53;;;4.00;;
77888;SDS011;67082;41.704;44.768;2023-12-20T05:19:35;8.02;;;3.58;;
77888;SDS011;67082;41.704;44.768;2023-12-20T05:22:04;9.43;;;3.90;;
77888;SDS011;67082;41.704;44.768;2023-12-20T05:24:34;9.48;;;3.70;;
77888;SDS011;67082;41.704;44.768;2023-12-20T05:27:02;11.05;;;3.95;;
77888;SDS011;67082;41.704;44.768;2023-12-20T05:29:31;10.73;;;3.72;;
77888;SDS011;67082;41.704;44.768;2023-12-20T05:31:59;9.73;;;3.78;;
77888;SDS011;67082;41.704;44.768;2023-12-20T05:34:27;14.30;;;4.10;;
77888;SDS011;67082;41.704;44.768;2023-12-20T05:36:56;10.55;;;3.95;;
77888;SDS011;67082;41.704;44.768;2023-12-20T05:39:25;14.88;;;4.72;;
77888;SDS011;67082;41.704;44.768;2023-12-20T05:41:54;17.00;;;5.30;;
77888;SDS011;67082;41.704;44.768;2023-12-20T05:44:25;14.75;;;5.00;;
77888;SDS011;67082;41.704;44.768;2023-12-20T05:46:54;19.83;;;6.65;;
77888;SDS011;67082;41.704;44.768;2023-12-20T05:49:22;15.82;;;5.50;;
77888;SDS011;67082;41.704;44.768;2023-12-20T05:51:51;16.13;;;5.80;;
77888;SDS011;67082;41.704;44.768;2023-12-20T05:54:19;16.85;;;5.82;;
77888;SDS011;67082;41.704;44.768;2023-12-20T05:56:47;20.45;;;6.18;;
77888;SDS011;67082;41.704;44.768;2023-12-20T05:59:15;15.50;;;5.63;;
77888;SDS011;67082;41.704;44.768;2023-12-20T06:01:43;13.63;;;5.78;;
77888;SDS011;67082;41.704;44.768;2023-12-20T06:04:12;12.88;;;5.22;;
77888;SDS011;67082;41.704;44.768;2023-12-20T06:06:41;11.82;;;4.43;;
77888;SDS011;67082;41.704;44.768;2023-12-20T06:09:10;13.23;;;5.10;;
77888;SDS011;67082;41.704;44.768;2023-12-20T06:11:39;13.35;;;5.07;;
77888;SDS011;67082;41.704;44.768;2023-12-20T06:14:07;15.93;;;5.82;;
77888;SDS011;67082;41.704;44.768;2023-12-20T06:16:35;16.05;;;5.35;;
77888;SDS011;67082;41.704;44.768;2023-12-20T06:19:03;14.93;;;5.22;;
77888;SDS011;67082;41.704;44.768;2023-12-20T06:21:34;15.20;;;6.13;;
77888;SDS011;67082;41.704;44.768;2023-12-20T06:24:02;11.82;;;6.30;;
77888;SDS011;67082;41.704;44.768;2023-12-20T06:26:31;15.50;;;5.45;;
77888;SDS011;67082;41.704;44.768;2023-12-20T06:28:59;13.95;;;6.32;;
77888;SDS011;67082;41.704;44.768;2023-12-20T06:31:27;16.10;;;7.22;;
77888;SDS011;67082;41.704;44.768;2023-12-20T06:33:55;13.75;;;6.70;;
77888;SDS011;67082;41.704;44.768;2023-12-20T06:36:26;14.38;;;5.82;;
77888;SDS011;67082;41.704;44.768;2023-12-20T06:38:54;16.90;;;5.25;;
77888;SDS011;67082;41.704;44.768;2023-12-20T06:41:22;16.65;;;5.85;;
77888;SDS011;67082;41.704;44.768;2023-12-20T06:43:52;15.32;;;5.93;;
77888;SDS011;67082;41.704;44.768;2023-12-20T06:46:20;11.82;;;5.43;;
77888;SDS011;67082;41.704;44.768;2023-12-20T06:48:49;17.17;;;5.22;;
77888;SDS011;67082;41.704;44.768;2023-12-20T06:51:17;16.27;;;5.70;;
77888;SDS011;67082;41.704;44.768;2023-12-20T06:53:48;12.80;;;5.22;;
77888;SDS011;67082;41.704;44.768;2023-12-20T06:56:16;16.83;;;5.35;;
77888;SDS011;67082;41.704;44.768;2023-12-20T06:58:46;12.40;;;5.50;;
77888;SDS011;67082;41.704;44.768;2023-12-20T07:01:15;12.07;;;5.43;;
77888;SDS011;67082;41.704;44.768;2023-12-20T07:04:08;12.68;;;5.28;;
77888;SDS011;67082;41.704;44.768;2023-12-20T07:06:34;12.10;;;5.32;;
77888;SDS011;67082;41.704;44.768;2023-12-20T07:09:02;14.90;;;5.55;;
77888;SDS011;67082;41.704;44.768;2023-12-20T07:11:30;14.70;;;6.05;;
77888;SDS011;67082;41.704;44.768;2023-12-20T07:13:59;12.35;;;5.25;;
77888;SDS011;67082;41.704;44.768;2023-12-20T07:16:28;10.85;;;5.68;;
77888;SDS011;67082;41.704;44.768;2023-12-20T07:18:57;16.45;;;6.18;;
77888;SDS011;67082;41.704;44.768;2023-12-20T07:21:26;14.15;;;5.93;;
77888;SDS011;67082;41.704;44.768;2023-12-20T07:23:54;12.13;;;5.97;;
77888;SDS011;67082;41.704;44.768;2023-12-20T07:26:25;12.52;;;5.57;;
77888;SDS011;67082;41.704;44.768;2023-12-20T07:28:53;12.90;;;5.47;;
77888;SDS011;67082;41.704;44.768;2023-12-20T07:31:21;11.57;;;5.82;;
77888;SDS011;67082;41.704;44.768;2023-12-20T07:33:49;12.43;;;5.70;;
77888;SDS011;67082;41.704;44.768;2023-12-20T07:36:19;16.77;;;7.35;;
77888;SDS011;67082;41.704;44.768;2023-12-20T07:38:47;19.30;;;6.78;;
77888;SDS011;67082;41.704;44.768;2023-12-20T07:41:15;14.82;;;6.18;;
77888;SDS011;67082;41.704;44.768;2023-12-20T07:43:44;18.00;;;7.68;;
77888;SDS011;67082;41.704;44.768;2023-12-20T07:46:12;18.17;;;7.82;;
77888;SDS011;67082;41.704;44.768;2023-12-20T07:48:40;37.10;;;11.15;;
77888;SDS011;67082;41.704;44.768;2023-12-20T07:51:12;24.45;;;10.00;;
77888;SDS011;67082;41.704;44.768;2023-12-20T07:53:40;38.33;;;13.70;;
77888;SDS011;67082;41.704;44.768;2023-12-20T07:56:15;30.55;;;12.00;;
77888;SDS011;67082;41.704;44.768;2023-12-20T07:58:47;25.95;;;11.25;;
77888;SDS011;67082;41.704;44.768;2023-12-20T08:01:20;28.98;;;11.90;;
77888;SDS011;67082;41.704;44.768;2023-12-20T08:03:52;29.77;;;12.02;;
77888;SDS011;67082;41.704;44.768;2023-12-20T08:06:22;30.17;;;12.85;;
77888;SDS011;67082;41.704;44.768;2023-12-20T08:08:50;33.33;;;13.38;;
77888;SDS011;67082;41.704;44.768;2023-12-20T08:11:28;28.60;;;12.63;;
77888;SDS011;67082;41.704;44.768;2023-12-20T08:13:57;38.88;;;13.48;;
77888;SDS011;67082;41.704;44.768;2023-12-20T08:16:26;30.73;;;13.18;;
77888;SDS011;67082;41.704;44.768;2023-12-20T08:18:57;32.63;;;13.52;;
77888;SDS011;67082;41.704;44.768;2023-12-20T08:21:25;28.98;;;12.52;;
77888;SDS011;67082;41.704;44.768;2023-12-20T08:23:54;34.58;;;12.70;;
77888;SDS011;67082;41.704;44.768;2023-12-20T08:26:22;31.98;;;13.60;;
77888;SDS011;67082;41.704;44.768;2023-12-20T08:28:52;29.42;;;12.88;;
77888;SDS011;67082;41.704;44.768;2023-12-20T08:31:20;29.00;;;12.63;;
77888;SDS011;67082;41.704;44.768;2023-12-20T08:33:49;31.30;;;12.77;;
77888;SDS011;67082;41.704;44.768;2023-12-20T08:36:17;31.02;;;12.25;;
77888;SDS011;67082;41.704;44.768;2023-12-20T08:38:49;30.73;;;12.32;;
77888;SDS011;67082;41.704;44.768;2023-12-20T08:41:18;36.17;;;12.27;;
77888;SDS011;67082;41.704;44.768;2023-12-20T08:43:48;31.13;;;11.80;;
77888;SDS011;67082;41.704;44.768;2023-12-20T08:46:16;29.25;;;13.02;;
77888;SDS011;67082;41.704;44.768;2023-12-20T08:48:46;37.83;;;12.27;;
77888;SDS011;67082;41.704;44.768;2023-12-20T08:51:15;38.10;;;13.02;;
77888;SDS011;67082;41.704;44.768;2023-12-20T08:53:44;29.13;;;12.52;;
77888;SDS011;67082;41.704;44.768;2023-12-20T08:56:12;33.38;;;12.85;;
77888;SDS011;67082;41.704;44.768;2023-12-20T08:58:41;31.63;;;11.82;;
77888;SDS011;67082;41.704;44.768;2023-12-20T09:01:09;38.05;;;12.68;;
77888;SDS011;67082;41.704;44.768;2023-12-20T09:03:38;32.67;;;12.10;;
77888;SDS011;67082;41.704;44.768;2023-12-20T09:06:07;27.13;;;12.15;;
77888;SDS011;67082;41.704;44.768;2023-12-20T09:08:35;26.52;;;12.18;;
77888;SDS011;67082;41.704;44.768;2023-12-20T09:11:03;27.80;;;12.75;;
77888;SDS011;67082;41.704;44.768;2023-12-20T09:13:32;25.63;;;11.80;;
77888;SDS011;67082;41.704;44.768;2023-12-20T09:16:03;31.73;;;12.60;;
77888;SDS011;67082;41.704;44.768;2023-12-20T09:18:37;28.38;;;11.73;;
77888;SDS011;67082;41.704;44.768;2023-12-20T09:21:05;27.35;;;11.88;;
77888;SDS011;67082;41.704;44.768;2023-12-20T09:23:37;23.92;;;11.32;;
77888;SDS011;67082;41.704;44.768;2023-12-20T09:26:06;33.33;;;11.18;;
77888;SDS011;67082;41.704;44.768;2023-12-20T09:28:34;27.05;;;11.07;;
77888;SDS011;67082;41.704;44.768;2023-12-20T09:31:05;23.40;;;10.75;;
77888;SDS011;67082;41.704;44.768;2023-12-20T09:33:35;23.08;;;9.98;;
77888;SDS011;67082;41.704;44.768;2023-12-20T09:36:03;32.47;;;10.30;;
77888;SDS011;67082;41.704;44.768;2023-12-20T09:38:31;26.67;;;10.57;;
77888;SDS011;67082;41.704;44.768;2023-12-20T09:41:00;24.70;;;10.43;;
77888;SDS011;67082;41.704;44.768;2023-12-20T09:43:32;22.63;;;10.50;;
77888;SDS011;67082;41.704;44.768;2023-12-20T09:46:06;23.65;;;11.43;;
77888;SDS011;67082;41.704;44.768;2023-12-20T09:48:38;23.65;;;11.38;;
77888;SDS011;67082;41.704;44.768;2023-12-20T09:51:08;31.70;;;11.75;;
77888;SDS011;67082;41.704;44.768;2023-12-20T09:53:39;24.23;;;11.02;;
77888;SDS011;67082;41.704;44.768;2023-12-20T09:56:10;26.52;;;10.98;;
77888;SDS011;67082;41.704;44.768;2023-12-20T09:58:40;26.33;;;11.13;;
77888;SDS011;67082;41.704;44.768;2023-12-20T10:01:09;19.90;;;11.25;;
77888;SDS011;67082;41.704;44.768;2023-12-20T10:03:38;25.92;;;10.80;;
77888;SDS011;67082;41.704;44.768;2023-12-20T10:06:09;22.10;;;11.07;;
77888;SDS011;67082;41.704;44.768;2023-12-20T10:08:38;28.38;;;11.55;;
77888;SDS011;67082;41.704;44.768;2023-12-20T10:11:06;20.75;;;11.07;;
77888;SDS011;67082;41.704;44.768;2023-12-20T10:13:39;28.17;;;11.27;;
77888;SDS011;67082;41.704;44.768;2023-12-20T10:16:09;26.60;;;10.65;;
77888;SDS011;67082;41.704;44.768;2023-12-20T10:18:37;23.50;;;10.88;;
77888;SDS011;67082;41.704;44.768;2023-12-20T10:21:06;24.20;;;11.68;;
77888;SDS011;67082;41.704;44.768;2023-12-20T10:23:38;25.42;;;11.70;;
77888;SDS011;67082;41.704;44.768;2023-12-20T10:26:07;26.75;;;12.32;;
77888;SDS011;67082;41.704;44.768;2023-12-20T10:28:36;23.17;;;11.65;;
77888;SDS011;67082;41.704;44.768;2023-12-20T10:31:04;25.25;;;11.38;;
77888;SDS011;67082;41.704;44.768;2023-12-20T10:33:33;25.00;;;11.30;;
77888;SDS011;67082;41.704;44.768;2023-12-20T10:36:02;25.95;;;12.00;;
77888;SDS011;67082;41.704;44.768;2023-12-20T10:38:31;23.13;;;11.77;;
77888;SDS011;67082;41.704;44.768;2023-12-20T10:40:59;26.08;;;12.05;;
77888;SDS011;67082;41.704;44.768;2023-12-20T10:43:30;30.60;;;13.02;;
77888;SDS011;67082;41.704;44.768;2023-12-20T10:46:03;31.05;;;13.00;;
77888;SDS011;67082;41.704;44.768;2023-12-20T10:48:32;24.30;;;11.55;;
77888;SDS011;67082;41.704;44.768;2023-12-20T10:51:03;24.00;;;11.73;;
77888;SDS011;67082;41.704;44.768;2023-12-20T10:53:33;25.85;;;11.05;;
77888;SDS011;67082;41.704;44.768;2023-12-20T10:56:04;26.27;;;11.65;;
77888;SDS011;67082;41.704;44.768;2023-12-20T10:58:36;21.60;;;10.43;;
77888;SDS011;67082;41.704;44.768;2023-12-20T11:01:11;27.33;;;11.80;;
77888;SDS011;67082;41.704;44.768;2023-12-20T11:03:51;24.70;;;9.93;;
77888;SDS011;67082;41.704;44.768;2023-12-20T11:09:19;22.33;;;11.30;;
77888;SDS011;67082;41.704;44.768;2023-12-20T11:14:34;22.80;;;11.40;;
77888;SDS011;67082;41.704;44.768;2023-12-20T11:17:11;20.35;;;10.65;;
77888;SDS011;67082;41.704;44.768;2023-12-20T11:22:32;20.88;;;10.38;;
77888;SDS011;67082;41.704;44.768;2023-12-20T11:25:09;23.63;;;11.57;;
77888;SDS011;67082;41.704;44.768;2023-12-20T11:27:42;25.13;;;12.07;;
77888;SDS011;67082;41.704;44.768;2023-12-20T11:30:14;32.08;;;13.70;;
77888;SDS011;67082;41.704;44.768;2023-12-20T11:32:43;29.50;;;14.55;;
77888;SDS011;67082;41.704;44.768;2023-12-20T11:37:42;27.77;;;13.23;;
77888;SDS011;67082;41.704;44.768;2023-12-20T11:40:13;29.27;;;12.65;;
77888;SDS011;67082;41.704;44.768;2023-12-20T11:42:44;29.27;;;13.05;;
77888;SDS011;67082;41.704;44.768;2023-12-20T11:45:17;29.15;;;13.27;;
77888;SDS011;67082;41.704;44.768;2023-12-20T12:24:08;19.15;;;9.32;;
77888;SDS011;67082;41.704;44.768;2023-12-20T12:26:37;21.08;;;9.10;;
77888;SDS011;67082;41.704;44.768;2023-12-20T12:29:07;25.08;;;9.45;;
77888;SDS011;67082;41.704;44.768;2023-12-20T12:31:35;22.13;;;9.80;;
77888;SDS011;67082;41.704;44.768;2023-12-20T12:34:04;20.67;;;9.77;;
77888;SDS011;67082;41.704;44.768;2023-12-20T12:36:32;19.77;;;9.93;;
77888;SDS011;67082;41.704;44.768;2023-12-20T12:39:04;17.30;;;8.95;;
77888;SDS011;67082;41.704;44.768;2023-12-20T12:41:33;19.38;;;10.07;;
77888;SDS011;67082;41.704;44.768;2023-12-20T12:44:01;19.98;;;10.15;;
77888;SDS011;67082;41.704;44.768;2023-12-20T12:46:46;22.95;;;9.23;;
77888;SDS011;67082;41.704;44.768;2023-12-20T12:49:19;22.13;;;9.70;;
77888;SDS011;67082;41.704;44.768;2023-12-20T12:51:50;23.77;;;10.48;;
77888;SDS011;67082;41.704;44.768;2023-12-20T12:54:19;21.42;;;9.80;;
77888;SDS011;67082;41.704;44.768;2023-12-20T12:56:50;23.38;;;9.23;;
77888;SDS011;67082;41.704;44.768;2023-12-20T12:59:20;20.58;;;9.85;;
77888;SDS011;67082;41.704;44.768;2023-12-20T13:01:48;21.85;;;9.63;;
77888;SDS011;67082;41.704;44.768;2023-12-20T13:04:17;19.75;;;9.05;;
77888;SDS011;67082;41.704;44.768;2023-12-20T13:06:45;20.98;;;9.80;;
77888;SDS011;67082;41.704;44.768;2023-12-20T13:09:15;25.98;;;9.95;;
77888;SDS011;67082;41.704;44.768;2023-12-20T13:11:43;24.02;;;9.80;;
77888;SDS011;67082;41.704;44.768;2023-12-20T13:14:11;20.60;;;10.20;;
77888;SDS011;67082;41.704;44.768;2023-12-20T13:16:43;18.20;;;9.38;;
77888;SDS011;67082;41.704;44.768;2023-12-20T13:19:12;22.90;;;10.05;;
77888;SDS011;67082;41.704;44.768;2023-12-20T13:21:41;22.38;;;9.75;;
77888;SDS011;67082;41.704;44.768;2023-12-20T13:24:09;22.92;;;10.60;;
77888;SDS011;67082;41.704;44.768;2023-12-20T13:26:37;20.35;;;9.85;;
77888;SDS011;67082;41.704;44.768;2023-12-20T13:29:05;20.85;;;10.05;;
77888;SDS011;67082;41.704;44.768;2023-12-20T13:31:35;22.17;;;8.98;;
77888;SDS011;67082;41.704;44.768;2023-12-20T13:34:04;21.77;;;9.45;;
77888;SDS011;67082;41.704;44.768;2023-12-20T13:36:33;18.95;;;9.52;;
77888;SDS011;67082;41.704;44.768;2023-12-20T13:39:02;23.92;;;9.93;;
77888;SDS011;67082;41.704;44.768;2023-12-20T13:41:32;20.95;;;9.50;;
77888;SDS011;67082;41.704;44.768;2023-12-20T13:44:01;19.77;;;9.70;;
77888;SDS011;67082;41.704;44.768;2023-12-20T13:46:30;28.92;;;11.80;;
77888;SDS011;67082;41.704;44.768;2023-12-20T13:48:59;24.85;;;9.93;;
77888;SDS011;67082;41.704;44.768;2023-12-20T13:51:30;31.70;;;10.85;;
77888;SDS011;67082;41.704;44.768;2023-12-20T13:53:58;26.80;;;11.55;;
77888;SDS011;67082;41.704;44.768;2023-12-20T13:56:26;26.23;;;11.45;;
77888;SDS011;67082;41.704;44.768;2023-12-20T13:58:55;25.10;;;11.05;;
77888;SDS011;67082;41.704;44.768;2023-12-20T14:01:23;24.02;;;11.02;;
77888;SDS011;67082;41.704;44.768;2023-12-20T14:03:53;23.17;;;10.75;;
77888;SDS011;67082;41.704;44.768;2023-12-20T14:06:22;28.98;;;10.80;;
77888;SDS011;67082;41.704;44.768;2023-12-20T14:08:50;24.33;;;10.63;;
77888;SDS011;67082;41.704;44.768;2023-12-20T14:11:18;24.52;;;10.18;;
77888;SDS011;67082;41.704;44.768;2023-12-20T14:13:48;23.42;;;10.80;;
77888;SDS011;67082;41.704;44.768;2023-12-20T14:16:16;23.85;;;10.15;;
77888;SDS011;67082;41.704;44.768;2023-12-20T14:18:48;21.63;;;10.52;;
77888;SDS011;67082;41.704;44.768;2023-12-20T14:21:17;23.02;;;9.70;;
77888;SDS011;67082;41.704;44.768;2023-12-20T14:23:49;23.63;;;9.93;;
77888;SDS011;67082;41.704;44.768;2023-12-20T14:26:17;25.80;;;10.15;;
77888;SDS011;67082;41.704;44.768;2023-12-20T14:28:46;26.48;;;10.65;;
77888;SDS011;67082;41.704;44.768;2023-12-20T14:31:14;22.80;;;9.68;;
77888;SDS011;67082;41.704;44.768;2023-12-20T14:33:46;21.73;;;10.95;;
77888;SDS011;67082;41.704;44.768;2023-12-20T14:36:17;23.17;;;10.45;;
77888;SDS011;67082;41.704;44.768;2023-12-20T14:38:46;23.00;;;10.38;;
77888;SDS011;67082;41.704;44.768;2023-12-20T14:41:15;18.42;;;9.07;;
77888;SDS011;67082;41.704;44.768;2023-12-20T14:43:45;20.15;;;9.15;;
77888;SDS011;67082;41.704;44.768;2023-12-20T14:46:14;17.67;;;8.07;;
77888;SDS011;67082;41.704;44.768;2023-12-20T14:48:44;34.15;;;9.32;;
77888;SDS011;67082;41.704;44.768;2023-12-20T14:51:12;20.77;;;8.77;;
77888;SDS011;67082;41.704;44.768;2023-12-20T14:53:41;22.38;;;8.52;;
77888;SDS011;67082;41.704;44.768;2023-12-20T14:56:09;18.55;;;8.63;;
77888;SDS011;67082;41.704;44.768;2023-12-20T14:58:38;22.75;;;8.98;;
77888;SDS011;67082;41.704;44.768;2023-12-20T15:01:06;24.60;;;9.15;;
77888;SDS011;67082;41.704;44.768;2023-12-20T15:03:37;21.48;;;10.13;;
77888;SDS011;67082;41.704;44.768;2023-12-20T15:06:07;24.90;;;11.65;;
77888;SDS011;67082;41.704;44.768;2023-12-20T15:08:39;26.85;;;12.13;;
77888;SDS011;67082;41.704;44.768;2023-12-20T15:11:08;25.40;;;12.18;;
77888;SDS011;67082;41.704;44.768;2023-12-20T15:13:37;28.70;;;11.63;;
77888;SDS011;67082;41.704;44.768;2023-12-20T15:16:06;18.70;;;10.57;;
77888;SDS011;67082;41.704;44.768;2023-12-20T15:18:35;24.38;;;10.40;;
77888;SDS011;67082;41.704;44.768;2023-12-20T15:21:03;26.63;;;10.73;;